Create Tblcommutelog Verified Points Advance Search
| # | Trip ID | Id Commuter | Trip Date | Trip Num | Current Lat | Current Lng | Delta Distance | Current Time | Activity | Activity Confidence | Current Speed | |
|---|---|---|---|---|---|---|---|---|---|---|---|---|
| 70401 | 250527_762844_16460442_0635 | 762844 | (not set) | (not set) | 38.929398314376 | -76.896939564398 | 33.7783 | 2025-05-27 11:21:34.266 | in_vehicle | 100 | 22.275966275358 | |
| 70402 | 250527_775339_16505279_0704 | 775339 | (not set) | (not set) | 38.962493050049 | -77.425332258646 | 6.6964 | 2025-05-27 11:21:35.225 | in_vehicle | 100 | 9.794630164421 | |
| 70403 | 250527_784667_16513832_0719 | 784667 | (not set) | (not set) | 38.779858 | -77.1355152 | 0.8458 | 2025-05-27 11:21:36.142 | still | 100 | 7.6399009361002 | |
| 70404 | 250527_785232_6438355_0659 | 785232 | (not set) | (not set) | 38.881933007184 | -77.144574686 | 3.0883 | 2025-05-27 11:21:36.857 | in_vehicle | 100 | 12.521569644246 | |
| 70405 | 250527_785232_6438355_0659 | 785232 | (not set) | (not set) | 38.881933007184 | -77.144574686 | 3.0883 | 2025-05-27 11:21:36.867 | in_vehicle | 100 | 12.521569644246 | |
| 70406 | 250527_775339_16505279_0704 | 775339 | (not set) | (not set) | 38.962501085187 | -77.424815942999 | 6.7242 | 2025-05-27 11:21:37.124 | in_vehicle | 100 | 9.8974491939882 | |
| 70407 | 250527_785147_16514010_0649 | 785147 | (not set) | (not set) | 39.121641737506 | -77.811708411174 | 24.2837 | 2025-05-27 11:21:37.405 | in_vehicle | 100 | 11.439734637496 | |
| 70408 | 250527_113832_16457490_0624 | 113832 | (not set) | (not set) | 38.907921394802 | -77.043519044048 | 19.1169 | 2025-05-27 11:21:38.236 | on_foot | 100 | 0.59903260704355 | |
| 70409 | 250527_780856_6461772_0705 | 780856 | (not set) | (not set) | 38.908675135967 | -77.09290440248 | 4.4122 | 2025-05-27 11:21:52.281 | on_bicycle | 100 | 3.1739787388128 | |
| 70410 | 250527_780745_16421763_0717 | 780745 | (not set) | (not set) | 39.087258571374 | -77.557444210623 | 1.3161 | 2025-05-27 11:21:53.288 | in_vehicle | 100 | 7.063220292006 | |
| 70411 | 250527_738572_16489587_0700 | 738572 | (not set) | (not set) | 38.920929117762 | -76.907659991747 | 14.8951 | 2025-05-27 11:21:53.327 | in_vehicle | 100 | 4.3675735603101 | |
| 70412 | 250527_780828_16507319_0706 | 780828 | (not set) | (not set) | 38.882859637693 | -77.103368598709 | 0.4046 | 2025-05-27 11:22:06.294 | unknown | 100 | -0.44703925898772 | |
| 70413 | 250527_780856_6461772_0705 | 780856 | (not set) | (not set) | 38.908061236004 | -77.091943163335 | 4.4791 | 2025-05-27 11:22:07.417 | on_bicycle | 100 | 3.5137285756435 | |
| 70414 | 250527_783344_16491788_0657 | 783344 | (not set) | (not set) | 38.874979406424 | -77.039214475297 | 6.9697 | 2025-05-27 11:22:08.288 | in_vehicle | 100 | 9.4951138608993 | |
| 70415 | 250527_766975_16479173_0702 | 766975 | (not set) | (not set) | 39.00023459696 | -77.095418281574 | 4.2752 | 2025-05-27 11:22:08.485 | on_foot | 100 | 0.54538789596502 | |
| 70416 | 250527_753586_16500033_0703 | 753586 | (not set) | (not set) | 38.894685621 | -77.002118529021 | 0.8989 | 2025-05-27 11:22:09.238 | in_vehicle | 100 | 2.7045875168757 | |
| 70417 | 250527_780745_16421763_0717 | 780745 | (not set) | (not set) | 39.085352272584 | -77.557621638371 | 1.4479 | 2025-05-27 11:22:11.262 | in_vehicle | 100 | 7.5504930843027 | |
| 70418 | 250527_738572_16489587_0700 | 738572 | (not set) | (not set) | 38.920248953448 | -76.909259373145 | 14.9932 | 2025-05-27 11:22:11.271 | in_vehicle | 100 | 4.9800173451232 | |
| 70419 | 250527_784104_6438355_0642 | 784104 | (not set) | (not set) | 39.109899541905 | -77.15784122404 | 6.3855 | 2025-05-27 11:22:12.239 | in_vehicle | 100 | 14.385723354225 | |
| 70420 | 250527_785147_16514010_0649 | 785147 | (not set) | (not set) | 39.124051181859 | -77.801585892392 | 24.8532 | 2025-05-27 11:22:13.439 | in_vehicle | 100 | 11.426323459726 |